Time;durP1;ratioP1;P1;durP2;ratioP2;P2;SDS_P1;SDS_P2;PMS_P1;PMS_P2;Temp;Humidity;BMP_temperature;BMP_pressure;BME280_temperature;BME280_humidity;BME280_pressure;Samples;Min_cycle;Max_cycle;Signal;HPM_P1;HPM_P2
2022/10/14 00:00:59;;;;;;;;;;;13.80;89.30;;;;;;5010047;28;20374;-79
2022/10/14 00:03:25;;;;;;;;;;;13.80;89.40;;;;;;5011806;28;19918;-79
2022/10/14 00:05:50;;;;;;;;;;;13.70;89.60;;;;;;5010891;28;19928;-80
2022/10/14 00:08:16;;;;;;;;;;;13.80;89.70;;;;;;5012716;28;19920;-80
2022/10/14 00:10:41;;;;;;;;;;;13.80;89.60;;;;;;5011752;28;19921;-80
2022/10/14 00:13:07;;;;;;;;;;;13.80;89.50;;;;;;5014426;28;20408;-81
2022/10/14 00:15:36;;;;;;;;;;;13.80;89.40;;;;;;5012253;28;19949;-80
2022/10/14 00:18:02;;;;;;;;;;;13.80;89.50;;;;;;5012874;28;20361;-81
2022/10/14 00:20:28;;;;;;;;;;;13.80;89.70;;;;;;5012729;28;19992;-80
2022/10/14 00:22:54;;;;;;;;;;;13.80;89.80;;;;;;5014098;28;19914;-79
2022/10/14 00:25:19;;;;;;;;;;;13.80;89.70;;;;;;5012964;28;19921;-80
2022/10/14 00:27:44;;;;;;;;;;;13.80;89.30;;;;;;5014759;28;19996;-80
2022/10/14 00:30:10;;;;;;;;;;;13.80;89.40;;;;;;5043694;23;19926;-86
2022/10/14 00:32:36;;;;;;;;;;;13.90;89.20;;;;;;5030941;28;19964;-86
2022/10/14 00:35:01;;;;;;;;;;;13.90;89.30;;;;;;5032494;28;19913;-86
2022/10/14 00:37:27;;;;;;;;;;;13.90;89.00;;;;;;5034404;28;19913;-85
2022/10/14 00:39:52;;;;;;;;;;;13.90;88.70;;;;;;5032180;28;19914;-86
2022/10/14 00:42:18;;;;;;;;;;;13.90;89.00;;;;;;5032485;28;19913;-86
2022/10/14 00:44:43;;;;;;;;;;;13.90;89.20;;;;;;5032383;28;19922;-86
2022/10/14 00:47:09;;;;;;;;;;;13.80;88.90;;;;;;5033699;28;19952;-86
2022/10/14 00:49:39;;;;;;;;;;;13.90;89.20;;;;;;5031988;28;20293;-85
2022/10/14 00:52:16;;;;;;;;;;;13.80;89.30;;;;;;5031786;28;19975;-86
2022/10/14 00:54:47;;;;;;;;;;;13.80;89.40;;;;;;5032048;28;19913;-85
2022/10/14 00:57:13;;;;;;;;;;;13.80;89.70;;;;;;5041974;28;19941;-86
2022/10/14 00:59:39;;;;;;;;;;;13.90;89.40;;;;;;5055086;28;19901;-86
2022/10/14 01:02:04;;;;;;;;;;;13.80;89.10;;;;;;5045295;28;20341;-85
2022/10/14 01:04:30;;;;;;;;;;;13.90;89.20;;;;;;5033748;28;19924;-85
2022/10/14 01:07:03;;;;;;;;;;;13.90;88.90;;;;;;5034770;28;19913;-85
2022/10/14 01:09:34;;;;;;;;;;;13.90;89.10;;;;;;5034444;28;20003;-85
2022/10/14 01:12:12;;;;;;;;;;;13.90;89.00;;;;;;5030881;28;19925;-85
2022/10/14 01:14:41;;;;;;;;;;;13.80;89.00;;;;;;5032397;28;19913;-86
2022/10/14 01:17:11;;;;;;;;;;;13.80;89.00;;;;;;5030634;28;19959;-85
2022/10/14 01:19:45;;;;;;;;;;;13.80;89.20;;;;;;5029193;28;19921;-85
2022/10/14 01:22:30;;;;;;;;;;;13.70;89.50;;;;;;5022338;28;20364;-86
2022/10/14 01:25:17;;;;;;;;;;;13.80;89.60;;;;;;5027838;28;19909;-86
2022/10/14 01:27:53;;;;;;;;;;;13.80;89.60;;;;;;5030359;28;19913;-85
2022/10/14 01:30:19;;;;;;;;;;;13.70;89.40;;;;;;5029570;28;20295;-86
2022/10/14 01:32:45;;;;;;;;;;;13.80;89.40;;;;;;5031279;28;20016;-86
2022/10/14 01:35:13;;;;;;;;;;;13.80;89.30;;;;;;5029133;28;19948;-85
2022/10/14 01:37:44;;;;;;;;;;;13.90;89.30;;;;;;5027404;28;19945;-86
2022/10/14 01:40:12;;;;;;;;;;;13.80;89.40;;;;;;5030282;28;19913;-85
2022/10/14 01:42:39;;;;;;;;;;;13.80;89.50;;;;;;5030445;28;19921;-85
2022/10/14 01:45:10;;;;;;;;;;;13.80;89.60;;;;;;5031423;28;19939;-85
2022/10/14 01:47:37;;;;;;;;;;;13.80;89.60;;;;;;5032287;28;19963;-85
2022/10/14 01:50:14;;;;;;;;;;;13.80;89.80;;;;;;5031311;28;19916;-85
2022/10/14 01:52:44;;;;;;;;;;;13.80;89.90;;;;;;5030598;28;19928;-85
2022/10/14 01:55:14;;;;;;;;;;;13.70;89.90;;;;;;5029455;28;19913;-85
2022/10/14 01:57:40;;;;;;;;;;;13.80;90.00;;;;;;5027554;28;19917;-85
2022/10/14 02:00:06;;;;;;;;;;;13.80;89.90;;;;;;5030940;28;19913;-85
2022/10/14 02:02:34;;;;;;;;;;;13.90;90.00;;;;;;5046120;28;19949;-85
2022/10/14 02:05:00;;;;;;;;;;;13.90;89.90;;;;;;5031133;28;19963;-85
2022/10/14 02:07:32;;;;;;;;;;;13.90;89.90;;;;;;5029155;28;19913;-85
2022/10/14 02:10:10;;;;;;;;;;;13.90;89.90;;;;;;5028910;28;19913;-85
2022/10/14 02:12:38;;;;;;;;;;;13.90;89.80;;;;;;5020825;28;19917;-85
2022/10/14 02:15:19;;;;;;;;;;;13.90;89.70;;;;;;5031702;28;19935;-85
2022/10/14 02:17:47;;;;;;;;;;;13.80;89.90;;;;;;5026818;28;19917;-85
2022/10/14 02:20:19;;;;;;;;;;;13.90;89.90;;;;;;5030900;28;19909;-85
2022/10/14 02:22:50;;;;;;;;;;;13.90;89.90;;;;;;5028841;28;19967;-85
2022/10/14 02:25:25;;;;;;;;;;;14.00;89.90;;;;;;5031446;28;19975;-85
2022/10/14 02:27:52;;;;;;;;;;;13.90;90.00;;;;;;5025167;28;19914;-86
2022/10/14 02:30:18;;;;;;;;;;;13.90;89.70;;;;;;5026648;28;19923;-87
2022/10/14 02:32:44;;;;;;;;;;;14.00;89.90;;;;;;5030345;28;19917;-87
2022/10/14 02:35:11;;;;;;;;;;;14.00;89.80;;;;;;5031133;28;19975;-86
2022/10/14 02:37:37;;;;;;;;;;;13.90;89.90;;;;;;5026513;28;20212;-85
2022/10/14 02:40:10;;;;;;;;;;;13.90;90.00;;;;;;5030999;28;19952;-85
2022/10/14 02:42:35;;;;;;;;;;;13.90;89.90;;;;;;5029624;28;19913;-86
2022/10/14 02:45:01;;;;;;;;;;;13.90;90.10;;;;;;5029469;28;19920;-85
2022/10/14 02:47:27;;;;;;;;;;;13.80;89.70;;;;;;5030753;28;20358;-86
2022/10/14 02:49:52;;;;;;;;;;;13.80;90.10;;;;;;5028600;28;19995;-85
2022/10/14 02:52:18;;;;;;;;;;;13.70;90.20;;;;;;5028535;28;20359;-85
2022/10/14 02:54:43;;;;;;;;;;;13.70;90.30;;;;;;5031687;28;19916;-86
2022/10/14 02:57:09;;;;;;;;;;;13.70;90.40;;;;;;5029026;28;20367;-86
2022/10/14 02:59:34;;;;;;;;;;;13.80;90.50;;;;;;5030837;28;19972;-86
2022/10/14 03:02:00;;;;;;;;;;;13.90;90.00;;;;;;5031609;28;19917;-85
2022/10/14 03:04:25;;;;;;;;;;;13.80;90.20;;;;;;5029290;28;19913;-85
2022/10/14 03:06:51;;;;;;;;;;;13.90;90.20;;;;;;5029575;28;20465;-86
2022/10/14 03:09:16;;;;;;;;;;;13.90;90.10;;;;;;5017556;28;19933;-85
2022/10/14 03:11:41;;;;;;;;;;;14.00;89.90;;;;;;5021016;28;19956;-86
2022/10/14 03:14:07;;;;;;;;;;;14.00;90.00;;;;;;5030343;28;19951;-86
2022/10/14 03:16:32;;;;;;;;;;;13.80;89.80;;;;;;5029864;28;19955;-86
2022/10/14 03:18:58;;;;;;;;;;;13.80;90.10;;;;;;5027951;28;19963;-86
2022/10/14 03:21:23;;;;;;;;;;;13.80;89.90;;;;;;5031079;28;19909;-86
2022/10/14 03:23:49;;;;;;;;;;;13.80;89.90;;;;;;5028023;28;19913;-85
2022/10/14 03:26:15;;;;;;;;;;;13.80;90.10;;;;;;5019662;28;19924;-86
2022/10/14 03:28:40;;;;;;;;;;;13.80;90.30;;;;;;5043870;28;19952;-85
2022/10/14 03:31:06;;;;;;;;;;;13.70;90.30;;;;;;5029637;28;19971;-85
2022/10/14 03:33:31;;;;;;;;;;;13.70;90.40;;;;;;5028326;28;19976;-86
2022/10/14 03:35:56;;;;;;;;;;;13.80;90.30;;;;;;5030763;28;19924;-86
2022/10/14 03:38:22;;;;;;;;;;;13.80;90.30;;;;;;5026669;28;19917;-85
2022/10/14 03:40:47;;;;;;;;;;;13.90;90.10;;;;;;5021855;28;19913;-85
2022/10/14 03:43:13;;;;;;;;;;;13.80;90.10;;;;;;5029630;28;19959;-86
2022/10/14 03:45:38;;;;;;;;;;;13.80;90.30;;;;;;5030049;28;19921;-85
2022/10/14 03:48:04;;;;;;;;;;;13.80;90.40;;;;;;5029641;28;19913;-85
2022/10/14 03:50:29;;;;;;;;;;;13.80;90.10;;;;;;5027479;28;19920;-85
2022/10/14 03:52:55;;;;;;;;;;;13.80;90.00;;;;;;5029914;28;20363;-86
2022/10/14 03:55:20;;;;;;;;;;;13.80;90.20;;;;;;5031744;28;19913;-86
2022/10/14 03:57:46;;;;;;;;;;;13.90;90.10;;;;;;5033895;28;20401;-85
2022/10/14 04:00:11;;;;;;;;;;;13.80;90.00;;;;;;5037826;28;19920;-86
2022/10/14 04:02:37;;;;;;;;;;;13.70;90.30;;;;;;5056566;28;19967;-85
2022/10/14 04:05:03;;;;;;;;;;;13.80;90.30;;;;;;5054562;28;19925;-86
2022/10/14 04:07:28;;;;;;;;;;;13.80;90.20;;;;;;5037525;28;20000;-85
2022/10/14 04:09:54;;;;;;;;;;;13.80;90.10;;;;;;5037005;28;20291;-85
2022/10/14 04:12:20;;;;;;;;;;;13.80;90.10;;;;;;5037446;28;20314;-85
2022/10/14 04:14:45;;;;;;;;;;;13.70;90.20;;;;;;5034388;28;19956;-86
2022/10/14 04:17:11;;;;;;;;;;;13.70;90.30;;;;;;5033140;28;19917;-86
2022/10/14 04:19:36;;;;;;;;;;;13.80;90.30;;;;;;5033930;28;19913;-86
2022/10/14 04:22:02;;;;;;;;;;;13.80;90.20;;;;;;5034625;28;20375;-86
2022/10/14 04:24:27;;;;;;;;;;;13.80;90.20;;;;;;5028436;28;19920;-86
2022/10/14 04:26:52;;;;;;;;;;;13.80;90.10;;;;;;5027196;28;19956;-86
2022/10/14 04:29:18;;;;;;;;;;;13.70;90.10;;;;;;5035728;28;19917;-86
2022/10/14 04:31:43;;;;;;;;;;;13.70;90.30;;;;;;5033523;28;19914;-85
2022/10/14 04:34:09;;;;;;;;;;;13.80;90.20;;;;;;5034141;28;20386;-86
2022/10/14 04:36:35;;;;;;;;;;;13.80;89.90;;;;;;5033399;28;20382;-85
2022/10/14 04:39:00;;;;;;;;;;;13.80;89.80;;;;;;5033289;28;19917;-85
2022/10/14 04:41:26;;;;;;;;;;;13.80;89.90;;;;;;5035520;28;20012;-86
2022/10/14 04:43:51;;;;;;;;;;;13.80;89.80;;;;;;5033729;28;20007;-85
2022/10/14 04:46:17;;;;;;;;;;;13.80;89.80;;;;;;5035363;28;19917;-85
2022/10/14 04:48:42;;;;;;;;;;;13.90;89.70;;;;;;5031963;28;19965;-85
2022/10/14 04:51:08;;;;;;;;;;;13.80;89.70;;;;;;5033127;28;19913;-84
2022/10/14 04:53:33;;;;;;;;;;;13.80;89.80;;;;;;5032108;28;19921;-84
2022/10/14 04:55:59;;;;;;;;;;;13.80;89.70;;;;;;5030445;28;19913;-84
2022/10/14 04:58:24;;;;;;;;;;;13.80;89.70;;;;;;5027250;28;19996;-85
2022/10/14 05:00:52;;;;;;;;;;;13.80;89.80;;;;;;5031246;28;19971;-85
2022/10/14 05:03:17;;;;;;;;;;;13.80;89.90;;;;;;5030052;28;19917;-84
2022/10/14 05:05:43;;;;;;;;;;;13.80;89.80;;;;;;5030504;28;20558;-84
2022/10/14 05:08:08;;;;;;;;;;;13.80;89.90;;;;;;5032563;28;19925;-84
2022/10/14 05:10:34;;;;;;;;;;;13.90;89.80;;;;;;5029897;28;19974;-84
2022/10/14 05:12:59;;;;;;;;;;;13.90;89.70;;;;;;5030549;28;20421;-84
2022/10/14 05:15:25;;;;;;;;;;;13.90;90.00;;;;;;5031545;28;19913;-84
2022/10/14 05:17:50;;;;;;;;;;;13.80;90.00;;;;;;5023407;28;20314;-85
2022/10/14 05:20:16;;;;;;;;;;;13.80;90.20;;;;;;5031054;28;20323;-84
2022/10/14 05:22:42;;;;;;;;;;;13.80;90.10;;;;;;5033804;28;19919;-83
2022/10/14 05:25:08;;;;;;;;;;;13.80;90.30;;;;;;5034826;28;19920;-84
2022/10/14 05:27:33;;;;;;;;;;;13.80;90.30;;;;;;5031927;28;19917;-83
2022/10/14 05:29:59;;;;;;;;;;;13.80;90.40;;;;;;5027061;28;19921;-84
2022/10/14 05:32:24;;;;;;;;;;;13.70;90.50;;;;;;5029165;28;19930;-84
2022/10/14 05:34:50;;;;;;;;;;;13.80;90.60;;;;;;5029721;28;19917;-84
2022/10/14 05:37:15;;;;;;;;;;;13.80;90.60;;;;;;5028951;28;19991;-81
2022/10/14 05:39:40;;;;;;;;;;;13.80;90.60;;;;;;5032569;28;19923;-83
2022/10/14 05:42:06;;;;;;;;;;;13.80;90.80;;;;;;5030054;28;19992;-81
2022/10/14 05:44:31;;;;;;;;;;;13.80;90.60;;;;;;5034529;28;19913;-81
2022/10/14 05:46:57;;;;;;;;;;;13.80;90.80;;;;;;5033214;28;19917;-85
2022/10/14 05:49:22;;;;;;;;;;;13.80;90.80;;;;;;5032571;28;20402;-84
2022/10/14 05:51:48;;;;;;;;;;;13.70;90.70;;;;;;5033242;28;20282;-84
2022/10/14 05:54:13;;;;;;;;;;;13.70;90.80;;;;;;5030789;28;19921;-83
2022/10/14 05:56:39;;;;;;;;;;;13.70;90.80;;;;;;5029482;28;19914;-82
2022/10/14 05:59:04;;;;;;;;;;;13.70;90.90;;;;;;5029492;28;19920;-83
2022/10/14 06:01:33;;;;;;;;;;;13.70;90.90;;;;;;5028008;28;19921;-82
2022/10/14 06:03:59;;;;;;;;;;;13.70;91.00;;;;;;5019592;28;19921;-82
2022/10/14 06:06:24;;;;;;;;;;;13.70;90.90;;;;;;5026719;28;19913;-82
2022/10/14 06:08:49;;;;;;;;;;;13.80;90.90;;;;;;5026450;28;20316;-83
2022/10/14 06:11:15;;;;;;;;;;;13.70;91.00;;;;;;5030711;28;19920;-82
2022/10/14 06:13:41;;;;;;;;;;;13.70;91.00;;;;;;5029992;28;19920;-82
2022/10/14 06:16:07;;;;;;;;;;;13.80;91.00;;;;;;5031301;28;19933;-83
2022/10/14 06:18:33;;;;;;;;;;;13.80;91.00;;;;;;5025777;28;19913;-83
2022/10/14 06:20:58;;;;;;;;;;;13.80;91.00;;;;;;5022742;28;19917;-82
2022/10/14 06:23:24;;;;;;;;;;;13.90;90.80;;;;;;5027931;28;20275;-86
2022/10/14 06:25:52;;;;;;;;;;;14.00;90.80;;;;;;5027171;28;19960;-83
2022/10/14 06:28:18;;;;;;;;;;;13.90;90.70;;;;;;5023118;28;19923;-82
2022/10/14 06:30:50;;;;;;;;;;;14.00;90.80;;;;;;5018232;22;20033;-85
2022/10/14 06:33:16;;;;;;;;;;;14.00;90.80;;;;;;4954121;28;19929;-83
2022/10/14 06:35:41;;;;;;;;;;;13.90;90.80;;;;;;4971749;28;19914;-84
2022/10/14 06:38:07;;;;;;;;;;;14.00;91.00;;;;;;4951731;28;19973;-84
2022/10/14 06:40:32;;;;;;;;;;;14.10;90.90;;;;;;4951000;28;19914;-84
2022/10/14 06:42:58;;;;;;;;;;;14.10;90.80;;;;;;4951799;28;19911;-84
2022/10/14 06:45:23;;;;;;;;;;;14.30;90.50;;;;;;4952076;29;19922;-86
2022/10/14 06:47:49;;;;;;;;;;;14.20;90.50;;;;;;4949133;28;19918;-85
2022/10/14 06:50:14;;;;;;;;;;;14.20;90.50;;;;;;4956521;28;20008;-84
2022/10/14 06:52:40;;;;;;;;;;;14.10;90.50;;;;;;4952035;28;19930;-85
2022/10/14 06:55:05;;;;;;;;;;;14.30;90.40;;;;;;4951555;28;19914;-86
2022/10/14 06:57:31;;;;;;;;;;;14.30;90.30;;;;;;4948472;28;19911;-85
2022/10/14 06:59:56;;;;;;;;;;;14.30;90.30;;;;;;4944701;28;20390;-84
2022/10/14 07:02:22;;;;;;;;;;;14.40;90.10;;;;;;4964131;28;19918;-86
2022/10/14 07:04:47;;;;;;;;;;;14.40;90.10;;;;;;4950162;28;19926;-85
2022/10/14 07:07:13;;;;;;;;;;;14.40;89.60;;;;;;4948119;28;20353;-84
2022/10/14 07:09:38;;;;;;;;;;;14.40;89.70;;;;;;4960192;28;19942;-84
2022/10/14 07:12:04;;;;;;;;;;;14.40;89.90;;;;;;4952952;28;20182;-84
2022/10/14 07:14:29;;;;;;;;;;;14.50;89.70;;;;;;4950855;28;19925;-85
2022/10/14 07:16:55;;;;;;;;;;;14.40;89.60;;;;;;4951523;28;19934;-83
2022/10/14 07:19:20;;;;;;;;;;;14.40;89.70;;;;;;4952273;28;19914;-84
2022/10/14 07:21:45;;;;;;;;;;;14.40;89.80;;;;;;4934056;28;19914;-84
2022/10/14 07:24:11;;;;;;;;;;;14.40;89.90;;;;;;4952792;28;19922;-83
2022/10/14 07:26:37;;;;;;;;;;;14.50;89.90;;;;;;4933179;28;19942;-84
2022/10/14 07:29:03;;;;;;;;;;;14.60;89.50;;;;;;4950607;28;19958;-82
2022/10/14 07:31:29;;;;;;;;;;;14.70;89.30;;;;;;4945863;28;19926;-83
2022/10/14 07:33:54;;;;;;;;;;;14.70;89.10;;;;;;4964793;28;19930;-83
2022/10/14 07:36:19;;;;;;;;;;;14.80;89.10;;;;;;4958951;28;19937;-82
2022/10/14 07:38:45;;;;;;;;;;;14.90;88.80;;;;;;4963956;28;19914;-83
2022/10/14 07:41:16;;;;;;;;;;;14.90;88.60;;;;;;4966168;28;19922;-83
2022/10/14 07:43:46;;;;;;;;;;;14.90;88.80;;;;;;4948607;29;20093;-83
2022/10/14 07:46:12;;;;;;;;;;;15.00;88.50;;;;;;4959887;28;19914;-83
2022/10/14 07:48:38;;;;;;;;;;;14.90;88.80;;;;;;4956043;28;20370;-81
2022/10/14 07:51:05;;;;;;;;;;;15.00;88.60;;;;;;4955885;28;19914;-81
2022/10/14 07:53:31;;;;;;;;;;;15.00;88.70;;;;;;4955980;28;19994;-83
2022/10/14 07:55:57;;;;;;;;;;;15.00;88.60;;;;;;4965265;28;19915;-83
2022/10/14 07:58:24;;;;;;;;;;;14.90;88.90;;;;;;4956265;28;19973;-82
2022/10/14 08:00:50;;;;;;;;;;;14.90;88.50;;;;;;4958651;28;20523;-83
2022/10/14 08:03:16;;;;;;;;;;;14.80;88.60;;;;;;4955910;28;19922;-83
2022/10/14 08:05:42;;;;;;;;;;;15.00;88.30;;;;;;4948596;28;19926;-83
2022/10/14 08:08:07;;;;;;;;;;;15.00;87.70;;;;;;4964765;28;19914;-83
2022/10/14 08:10:33;;;;;;;;;;;15.00;88.00;;;;;;4955184;28;19941;-83
2022/10/14 08:12:58;;;;;;;;;;;15.00;88.00;;;;;;4953412;28;20004;-83
2022/10/14 08:15:28;;;;;;;;;;;14.90;87.80;;;;;;4954087;28;19921;-83
2022/10/14 08:17:55;;;;;;;;;;;14.90;88.20;;;;;;4952285;28;20005;-82
2022/10/14 08:20:20;;;;;;;;;;;14.90;88.30;;;;;;4952352;28;19915;-83
2022/10/14 08:22:45;;;;;;;;;;;14.90;88.30;;;;;;4955987;28;19987;-83
2022/10/14 08:25:11;;;;;;;;;;;15.00;88.50;;;;;;4944779;28;20013;-82
2022/10/14 08:27:36;;;;;;;;;;;15.00;88.50;;;;;;4949925;28;19929;-84
2022/10/14 08:30:02;;;;;;;;;;;15.00;88.80;;;;;;4933485;29;19965;-83
2022/10/14 08:32:28;;;;;;;;;;;15.10;88.40;;;;;;4955568;28;20405;-83
2022/10/14 08:34:54;;;;;;;;;;;15.20;88.10;;;;;;4955454;28;19921;-81
2022/10/14 08:37:20;;;;;;;;;;;15.20;88.10;;;;;;4952830;28;19915;-81
2022/10/14 08:39:45;;;;;;;;;;;15.40;88.00;;;;;;4947674;28;19920;-82
2022/10/14 08:42:29;;;;;;;;;;;15.50;86.90;;;;;;4942376;28;19922;-80
2022/10/14 08:44:55;;;;;;;;;;;15.40;87.50;;;;;;4959544;28;19922;-80
2022/10/14 08:47:25;;;;;;;;;;;15.60;86.70;;;;;;4963680;28;19915;-81
2022/10/14 08:49:57;;;;;;;;;;;15.60;87.00;;;;;;4979301;28;19970;-82
2022/10/14 08:52:29;;;;;;;;;;;15.60;87.30;;;;;;4967689;28;19915;-84
2022/10/14 08:54:56;;;;;;;;;;;15.60;86.80;;;;;;4962245;28;19974;-83
2022/10/14 08:57:27;;;;;;;;;;;15.60;86.60;;;;;;4969959;28;19918;-83
2022/10/14 08:59:53;;;;;;;;;;;15.60;86.90;;;;;;4960095;28;20005;-81
2022/10/14 09:02:18;;;;;;;;;;;15.60;87.20;;;;;;4968546;28;19918;-83
2022/10/14 09:04:44;;;;;;;;;;;15.60;87.60;;;;;;4957281;28;19965;-83
2022/10/14 09:07:14;;;;;;;;;;;15.60;87.60;;;;;;4954668;28;19915;-82
2022/10/14 09:09:42;;;;;;;;;;;15.50;88.00;;;;;;4932296;29;20286;-80
2022/10/14 09:12:12;;;;;;;;;;;15.60;87.40;;;;;;4934654;29;20279;-81
2022/10/14 09:14:40;;;;;;;;;;;15.70;87.10;;;;;;4952911;28;19918;-82
2022/10/14 09:17:11;;;;;;;;;;;15.70;86.80;;;;;;4956164;28;19969;-81
2022/10/14 09:19:40;;;;;;;;;;;15.70;87.30;;;;;;4952929;28;19918;-81
2022/10/14 09:22:10;;;;;;;;;;;15.70;86.70;;;;;;4939415;29;19915;-82
2022/10/14 09:24:36;;;;;;;;;;;15.80;86.50;;;;;;4954059;28;19923;-83
2022/10/14 09:27:06;;;;;;;;;;;15.80;86.40;;;;;;4954642;28;20221;-81
2022/10/14 09:29:55;;;;;;;;;;;15.90;86.30;;;;;;4951539;28;20394;-82
2022/10/14 09:32:21;;;;;;;;;;;16.00;86.60;;;;;;4948100;28;20275;-83
2022/10/14 09:34:47;;;;;;;;;;;16.00;85.90;;;;;;4969792;28;19914;-82
2022/10/14 09:37:25;;;;;;;;;;;16.00;85.60;;;;;;4956674;29;19957;-82
2022/10/14 09:39:52;;;;;;;;;;;16.10;85.10;;;;;;4954278;28;19965;-83
2022/10/14 09:42:34;;;;;;;;;;;16.20;85.10;;;;;;4970383;28;20386;-82
2022/10/14 09:45:08;;;;;;;;;;;16.10;85.00;;;;;;4954609;28;20291;-83
2022/10/14 09:47:48;;;;;;;;;;;16.20;84.90;;;;;;4954147;28;20025;-82
2022/10/14 09:50:24;;;;;;;;;;;16.10;85.40;;;;;;4953667;28;20283;-82
2022/10/14 09:52:56;;;;;;;;;;;16.10;85.90;;;;;;4973073;28;19921;-83
2022/10/14 09:55:23;;;;;;;;;;;16.20;85.70;;;;;;4954728;28;19914;-83
2022/10/14 09:58:18;;;;;;;;;;;16.40;84.50;;;;;;4955972;28;19910;-82
2022/10/14 10:00:44;;;;;;;;;;;16.20;85.10;;;;;;4948567;28;20005;-82
2022/10/14 10:03:23;;;;;;;;;;;16.30;85.50;;;;;;4945637;29;19938;-83
2022/10/14 10:05:57;;;;;;;;;;;16.20;85.50;;;;;;4952003;28;19950;-82
2022/10/14 10:08:22;;;;;;;;;;;16.30;85.00;;;;;;4957171;28;19919;-82
2022/10/14 10:10:59;;;;;;;;;;;16.40;85.40;;;;;;4957821;28;19915;-83
2022/10/14 10:13:32;;;;;;;;;;;16.50;84.30;;;;;;4956887;28;19926;-82
2022/10/14 10:15:59;;;;;;;;;;;16.60;83.50;;;;;;4942333;29;19917;-83
2022/10/14 10:18:25;;;;;;;;;;;16.60;83.90;;;;;;4957844;28;19915;-83
2022/10/14 10:21:01;;;;;;;;;;;16.60;83.40;;;;;;4951852;28;20363;-82
2022/10/14 10:23:27;;;;;;;;;;;16.80;83.60;;;;;;4952900;28;19949;-83
2022/10/14 10:25:53;;;;;;;;;;;16.70;84.20;;;;;;4954635;28;19918;-82
2022/10/14 10:28:26;;;;;;;;;;;16.80;83.90;;;;;;4959447;28;20006;-83
2022/10/14 10:30:58;;;;;;;;;;;16.70;83.50;;;;;;4957685;28;19918;-81
2022/10/14 10:33:41;;;;;;;;;;;16.70;83.20;;;;;;4945439;28;20029;-82
2022/10/14 10:36:07;;;;;;;;;;;16.80;83.60;;;;;;4948335;28;20366;-80
2022/10/14 10:38:50;;;;;;;;;;;16.60;83.60;;;;;;4941873;28;19922;-81
2022/10/14 10:41:15;;;;;;;;;;;16.60;84.10;;;;;;4947847;29;19933;-81
2022/10/14 10:43:53;;;;;;;;;;;16.60;83.90;;;;;;4951300;28;19911;-80
2022/10/14 10:46:32;;;;;;;;;;;16.60;83.80;;;;;;4947709;29;19919;-82
2022/10/14 10:49:00;;;;;;;;;;;16.70;83.50;;;;;;4933447;29;19914;-83
2022/10/14 10:51:33;;;;;;;;;;;16.80;83.50;;;;;;4948212;28;20017;-81
2022/10/14 10:54:19;;;;;;;;;;;17.00;83.60;;;;;;4937273;28;22232;-81
2022/10/14 10:56:49;;;;;;;;;;;17.00;82.90;;;;;;4951489;28;20920;-84
2022/10/14 10:59:37;;;;;;;;;;;17.10;82.90;;;;;;4969409;28;19914;-80
2022/10/14 11:02:12;;;;;;;;;;;17.10;82.30;;;;;;4967066;28;19915;-82
2022/10/14 11:04:44;;;;;;;;;;;17.10;82.10;;;;;;4958648;28;19922;-81
2022/10/14 11:13:26;;;;;;;;;;;17.20;81.60;;;;;;4927201;29;20414;-83
2022/10/14 11:16:03;;;;;;;;;;;17.30;81.60;;;;;;4960449;29;19911;-83
2022/10/14 11:18:46;;;;;;;;;;;17.30;82.00;;;;;;4962556;28;19922;-83
2022/10/14 11:21:14;;;;;;;;;;;17.50;81.40;;;;;;4962748;28;19922;-82
2022/10/14 11:23:41;;;;;;;;;;;17.50;81.10;;;;;;4954411;28;19942;-82
2022/10/14 11:26:19;;;;;;;;;;;17.50;80.80;;;;;;4955979;28;19915;-80
2022/10/14 11:29:02;;;;;;;;;;;17.30;81.60;;;;;;4952479;28;19914;-82
2022/10/14 11:31:37;;;;;;;;;;;17.10;82.80;;;;;;4962888;28;20006;-82
2022/10/14 11:34:15;;;;;;;;;;;17.20;83.20;;;;;;4968233;28;20381;-81
2022/10/14 11:36:54;;;;;;;;;;;17.30;81.90;;;;;;4959499;28;20057;-82
2022/10/14 11:39:28;;;;;;;;;;;17.40;81.30;;;;;;4953942;28;19919;-83
2022/10/14 11:42:23;;;;;;;;;;;17.50;81.10;;;;;;4962071;28;19921;-83
2022/10/14 11:44:54;;;;;;;;;;;17.50;80.80;;;;;;4949078;28;19915;-83
2022/10/14 11:47:26;;;;;;;;;;;17.50;81.70;;;;;;4962038;28;19938;-83
2022/10/14 11:50:03;;;;;;;;;;;17.50;80.70;;;;;;4959136;28;20310;-82
2022/10/14 11:52:36;;;;;;;;;;;17.40;80.80;;;;;;4958423;28;19921;-83
2022/10/14 11:55:10;;;;;;;;;;;17.50;80.30;;;;;;4958241;29;20179;-83
2022/10/14 11:57:42;;;;;;;;;;;17.50;81.30;;;;;;4954919;28;19918;-82
2022/10/14 12:00:12;;;;;;;;;;;17.50;80.20;;;;;;4956220;29;19915;-83
2022/10/14 12:02:53;;;;;;;;;;;17.30;80.70;;;;;;4953202;28;19918;-82
2022/10/14 12:05:21;;;;;;;;;;;17.30;80.30;;;;;;4956228;28;19918;-83
2022/10/14 12:08:05;;;;;;;;;;;17.30;80.70;;;;;;4944886;28;19918;-82
2022/10/14 12:10:33;;;;;;;;;;;17.10;81.20;;;;;;4955123;28;19953;-83
2022/10/14 12:12:59;;;;;;;;;;;17.30;80.50;;;;;;4942824;28;19919;-83
2022/10/14 12:15:25;;;;;;;;;;;17.20;80.60;;;;;;4960603;28;19911;-83
2022/10/14 12:17:51;;;;;;;;;;;17.30;80.60;;;;;;4958651;28;19915;-82
2022/10/14 12:20:31;;;;;;;;;;;17.20;81.20;;;;;;4957947;28;19977;-83
2022/10/14 12:22:57;;;;;;;;;;;17.30;81.30;;;;;;4953087;28;19914;-81
2022/10/14 12:25:26;;;;;;;;;;;17.30;82.10;;;;;;4953494;28;19922;-84
2022/10/14 12:27:52;;;;;;;;;;;17.30;81.70;;;;;;4959997;29;20298;-83
2022/10/14 12:30:30;;;;;;;;;;;17.30;81.60;;;;;;4953359;28;19978;-83
2022/10/14 12:33:06;;;;;;;;;;;17.30;81.10;;;;;;4957040;28;19926;-83
2022/10/14 12:35:49;;;;;;;;;;;17.10;80.50;;;;;;4953056;28;19914;-83
2022/10/14 12:38:15;;;;;;;;;;;17.10;81.10;;;;;;4956014;28;20318;-82
2022/10/14 12:40:40;;;;;;;;;;;17.00;81.60;;;;;;4955232;28;19919;-81
2022/10/14 12:43:12;;;;;;;;;;;17.10;81.90;;;;;;4962335;28;19933;-83
2022/10/14 12:45:45;;;;;;;;;;;17.00;82.10;;;;;;4980417;28;19928;-82
2022/10/14 12:48:19;;;;;;;;;;;17.00;81.60;;;;;;4969467;28;19914;-81
2022/10/14 12:50:46;;;;;;;;;;;17.00;81.40;;;;;;4966502;28;19918;-82
2022/10/14 12:53:17;;;;;;;;;;;17.00;82.10;;;;;;4967411;29;19946;-81
2022/10/14 12:55:48;;;;;;;;;;;16.90;82.10;;;;;;4966097;28;19990;-80
2022/10/14 12:58:20;;;;;;;;;;;16.90;82.50;;;;;;4960829;28;19997;-81
2022/10/14 13:00:51;;;;;;;;;;;17.10;82.30;;;;;;4959607;28;19918;-80
2022/10/14 13:03:19;;;;;;;;;;;17.10;82.70;;;;;;4960093;28;19921;-80
2022/10/14 13:05:45;;;;;;;;;;;17.00;83.40;;;;;;4960224;28;19929;-81
2022/10/14 13:08:21;;;;;;;;;;;17.00;83.70;;;;;;4959842;28;19914;-81
2022/10/14 13:10:49;;;;;;;;;;;16.80;84.30;;;;;;4961462;28;20580;-82
2022/10/14 13:13:33;;;;;;;;;;;16.80;85.30;;;;;;4959272;28;19922;-83
2022/10/14 13:15:59;;;;;;;;;;;16.70;85.80;;;;;;4960448;28;20647;-82
2022/10/14 13:18:24;;;;;;;;;;;16.70;86.30;;;;;;4955880;28;19933;-84
2022/10/14 13:20:50;;;;;;;;;;;16.60;86.40;;;;;;4954510;28;19918;-81
2022/10/14 13:23:35;;;;;;;;;;;16.50;86.70;;;;;;4947811;28;19918;-82
2022/10/14 13:26:10;;;;;;;;;;;16.50;87.20;;;;;;4939948;28;20567;-82
2022/10/14 13:28:43;;;;;;;;;;;16.50;87.50;;;;;;4947023;28;19922;-80
2022/10/14 13:31:20;;;;;;;;;;;16.40;87.50;;;;;;4949165;28;19919;-86
2022/10/14 13:33:54;;;;;;;;;;;16.40;88.00;;;;;;4955540;28;19954;-86
2022/10/14 13:36:46;;;;;;;;;;;16.30;88.40;;;;;;4954510;28;19922;-82
2022/10/14 13:39:12;;;;;;;;;;;16.30;88.50;;;;;;4928751;28;19965;-84
2022/10/14 13:41:39;;;;;;;;;;;16.40;88.60;;;;;;4954739;29;19979;-84
2022/10/14 13:44:05;;;;;;;;;;;16.30;88.70;;;;;;4953577;28;19910;-82
2022/10/14 13:46:41;;;;;;;;;;;16.50;88.40;;;;;;4938092;29;19917;-82
2022/10/14 13:49:13;;;;;;;;;;;16.50;88.40;;;;;;4938286;29;19922;-82
2022/10/14 13:51:59;;;;;;;;;;;16.60;88.40;;;;;;4974951;28;19917;-82
2022/10/14 13:54:25;;;;;;;;;;;16.70;88.10;;;;;;4965445;28;20390;-81
2022/10/14 13:57:17;;;;;;;;;;;16.70;87.90;;;;;;4954904;28;19933;-82
2022/10/14 13:59:44;;;;;;;;;;;16.70;87.90;;;;;;4953248;29;19921;-82
2022/10/14 14:02:14;;;;;;;;;;;16.50;87.90;;;;;;4955352;28;19922;-82
2022/10/14 14:04:40;;;;;;;;;;;16.40;88.30;;;;;;4938159;28;20375;-83
2022/10/14 14:07:05;;;;;;;;;;;16.30;88.60;;;;;;4952272;28;19981;-81
2022/10/14 14:09:32;;;;;;;;;;;16.20;88.90;;;;;;4943198;28;19946;-82
2022/10/14 14:11:59;;;;;;;;;;;16.20;89.30;;;;;;4936654;29;20392;-82
2022/10/14 14:14:35;;;;;;;;;;;16.20;89.30;;;;;;4955801;28;19941;-82
2022/10/14 14:17:02;;;;;;;;;;;16.30;89.40;;;;;;4949167;28;19910;-82
2022/10/14 14:19:29;;;;;;;;;;;16.30;89.30;;;;;;4955350;28;19921;-81
2022/10/14 14:22:15;;;;;;;;;;;16.30;89.20;;;;;;4950472;28;19921;-81
2022/10/14 14:24:41;;;;;;;;;;;16.20;89.20;;;;;;4934884;29;19954;-82
2022/10/14 14:27:16;;;;;;;;;;;16.10;89.10;;;;;;4935615;29;19958;-81
2022/10/14 14:29:43;;;;;;;;;;;16.10;89.40;;;;;;4948378;28;19941;-82
2022/10/14 14:32:14;;;;;;;;;;;16.10;89.40;;;;;;4959632;28;19915;-81